Time;durP1;ratioP1;P1;durP2;ratioP2;P2;SDS_P1;SDS_P2;PMS_P1;PMS_P2;Temp;Humidity;BMP_temperature;BMP_pressure;BME280_temperature;BME280_humidity;BME280_pressure;Samples;Min_cycle;Max_cycle;Signal;HPM_P1;HPM_P2
2022/04/02 00:01:51;;;;;;;;;;;22.10;29.10;;;;;;464410;256;1241;-60
2022/04/02 00:03:53;;;;;;;;;;;22.00;29.10;;;;;;464567;256;1078;-59
2022/04/02 00:05:55;;;;;;;;;;;22.00;29.10;;;;;;464460;256;1161;-60
2022/04/02 00:07:55;;;;;;;;;;;22.10;29.10;;;;;;464427;256;1774;-59
2022/04/02 00:09:57;;;;;;;;;;;22.10;29.10;;;;;;464881;256;1064;-59
2022/04/02 00:11:59;;;;;;;;;;;22.10;29.10;;;;;;464539;256;1301;-60
2022/04/02 00:13:59;;;;;;;;;;;22.10;29.00;;;;;;464494;256;1489;-60
2022/04/02 00:16:01;;;;;;;;;;;22.10;29.00;;;;;;464512;256;1241;-60
2022/04/02 00:18:02;;;;;;;;;;;22.10;29.10;;;;;;464494;256;1111;-60
2022/04/02 00:20:04;;;;;;;;;;;22.10;29.10;;;;;;464491;256;2202;-59
2022/04/02 00:22:05;;;;;;;;;;;22.10;29.00;;;;;;464432;256;1019;-60
2022/04/02 00:24:07;;;;;;;;;;;22.10;29.00;;;;;;464470;256;1005;-60
2022/04/02 00:26:08;;;;;;;;;;;22.10;29.00;;;;;;464398;256;1361;-60
2022/04/02 00:28:10;;;;;;;;;;;22.10;29.00;;;;;;464462;256;1112;-60
2022/04/02 00:30:11;;;;;;;;;;;22.10;29.00;;;;;;464562;256;1188;-59
2022/04/02 00:32:12;;;;;;;;;;;22.10;29.00;;;;;;464523;256;1341;-60
2022/04/02 00:34:14;;;;;;;;;;;22.10;29.00;;;;;;464470;256;1103;-60
2022/04/02 00:36:15;;;;;;;;;;;22.10;29.00;;;;;;464583;256;1201;-60
2022/04/02 00:38:16;;;;;;;;;;;22.10;29.00;;;;;;464450;256;1047;-60
2022/04/02 00:40:17;;;;;;;;;;;22.10;29.00;;;;;;464484;256;2198;-60
2022/04/02 00:42:19;;;;;;;;;;;22.10;29.00;;;;;;464420;256;1689;-60
2022/04/02 00:44:21;;;;;;;;;;;22.10;29.00;;;;;;464489;256;1172;-60
2022/04/02 00:46:22;;;;;;;;;;;22.10;29.00;;;;;;464413;256;1423;-59
2022/04/02 00:48:23;;;;;;;;;;;22.00;29.00;;;;;;464517;256;948;-59
2022/04/02 00:50:27;;;;;;;;;;;22.10;29.00;;;;;;464532;256;963;-60
2022/04/02 00:52:26;;;;;;;;;;;22.10;29.00;;;;;;464314;257;1522;-59
2022/04/02 00:54:27;;;;;;;;;;;22.10;28.90;;;;;;464635;256;1149;-60
2022/04/02 00:56:29;;;;;;;;;;;22.10;28.90;;;;;;464631;256;1363;-59
2022/04/02 00:58:30;;;;;;;;;;;22.10;29.00;;;;;;464549;256;1093;-59
2022/04/02 01:00:31;;;;;;;;;;;22.10;29.00;;;;;;464482;256;2167;-59
2022/04/02 01:02:34;;;;;;;;;;;22.10;28.90;;;;;;464412;256;1350;-59
2022/04/02 01:04:34;;;;;;;;;;;22.10;29.00;;;;;;464452;257;1537;-59
2022/04/02 01:06:36;;;;;;;;;;;22.00;29.00;;;;;;464493;256;1207;-60
2022/04/02 01:08:37;;;;;;;;;;;21.90;29.00;;;;;;464650;256;1067;-59
2022/04/02 01:10:39;;;;;;;;;;;22.00;29.00;;;;;;464742;256;1147;-60
2022/04/02 01:12:41;;;;;;;;;;;22.00;29.00;;;;;;464437;256;1191;-60
2022/04/02 01:14:42;;;;;;;;;;;22.00;28.90;;;;;;464511;256;1198;-60
2022/04/02 01:16:43;;;;;;;;;;;22.00;28.90;;;;;;464450;256;1212;-59
2022/04/02 01:18:44;;;;;;;;;;;22.00;28.90;;;;;;464508;256;1048;-60
2022/04/02 01:20:46;;;;;;;;;;;22.00;28.80;;;;;;464439;256;2202;-60
2022/04/02 01:22:47;;;;;;;;;;;22.00;28.90;;;;;;464504;256;1134;-60
2022/04/02 01:24:48;;;;;;;;;;;22.00;28.80;;;;;;464470;256;946;-59
2022/04/02 01:26:50;;;;;;;;;;;22.00;28.80;;;;;;464511;256;1223;-60
2022/04/02 01:28:54;;;;;;;;;;;22.00;28.80;;;;;;464499;256;1060;-60
2022/04/02 01:30:55;;;;;;;;;;;22.10;28.90;;;;;;464479;256;1211;-60
2022/04/02 01:32:57;;;;;;;;;;;22.10;28.80;;;;;;464497;256;1023;-60
2022/04/02 01:34:58;;;;;;;;;;;22.10;28.80;;;;;;464682;256;1051;-60
2022/04/02 01:36:59;;;;;;;;;;;22.10;28.80;;;;;;464342;256;1313;-59
2022/04/02 01:39:00;;;;;;;;;;;22.10;28.80;;;;;;464478;256;1067;-60
2022/04/02 01:41:02;;;;;;;;;;;22.10;28.80;;;;;;464649;256;2116;-59
2022/04/02 01:43:03;;;;;;;;;;;22.10;28.70;;;;;;464491;256;1042;-59
2022/04/02 01:45:04;;;;;;;;;;;22.10;28.80;;;;;;464745;256;1124;-60
2022/04/02 01:47:06;;;;;;;;;;;22.10;28.70;;;;;;464586;256;1176;-60
2022/04/02 01:49:07;;;;;;;;;;;22.10;28.70;;;;;;464493;256;1194;-59
2022/04/02 01:51:08;;;;;;;;;;;22.10;28.70;;;;;;464582;256;1335;-59
2022/04/02 01:53:10;;;;;;;;;;;22.10;28.70;;;;;;464476;256;1090;-60
2022/04/02 01:55:11;;;;;;;;;;;22.10;28.70;;;;;;464623;256;1068;-60
2022/04/02 01:57:12;;;;;;;;;;;22.10;28.60;;;;;;464452;256;1065;-59
2022/04/02 01:59:14;;;;;;;;;;;22.10;28.70;;;;;;464516;256;1112;-59
2022/04/02 02:01:15;;;;;;;;;;;22.00;28.70;;;;;;464412;256;2186;-60
2022/04/02 02:03:17;;;;;;;;;;;22.00;28.70;;;;;;464430;256;1360;-59
2022/04/02 02:05:18;;;;;;;;;;;22.00;28.70;;;;;;464418;257;1442;-60
2022/04/02 02:07:20;;;;;;;;;;;22.00;28.80;;;;;;464439;256;1251;-60
2022/04/02 02:09:20;;;;;;;;;;;22.00;28.80;;;;;;464449;256;1322;-59
2022/04/02 02:11:22;;;;;;;;;;;22.00;28.80;;;;;;464385;256;1321;-61
2022/04/02 02:13:24;;;;;;;;;;;22.00;28.70;;;;;;464509;256;1126;-59
2022/04/02 02:15:26;;;;;;;;;;;22.00;28.70;;;;;;464477;256;1242;-60
2022/04/02 02:17:26;;;;;;;;;;;22.10;28.60;;;;;;464419;257;1342;-60
2022/04/02 02:19:27;;;;;;;;;;;22.00;28.60;;;;;;464498;256;1053;-60
2022/04/02 02:21:29;;;;;;;;;;;22.00;28.70;;;;;;464365;256;2239;-59
2022/04/02 02:23:30;;;;;;;;;;;22.00;28.60;;;;;;464505;256;1216;-59
2022/04/02 02:25:32;;;;;;;;;;;22.00;28.60;;;;;;464627;256;1050;-60
2022/04/02 02:27:33;;;;;;;;;;;21.90;28.70;;;;;;464476;256;1321;-59
2022/04/02 02:29:35;;;;;;;;;;;21.90;28.60;;;;;;464548;256;1169;-60
2022/04/02 02:31:35;;;;;;;;;;;21.90;28.60;;;;;;464406;257;2545;-59
2022/04/02 02:35:56;;;;;;;;;;;22.00;28.60;;;;;;464427;257;1234;-60
2022/04/02 02:37:58;;;;;;;;;;;22.00;28.50;;;;;;464515;256;1134;-60
2022/04/02 02:39:59;;;;;;;;;;;22.00;28.50;;;;;;464482;256;979;-59
2022/04/02 02:42:00;;;;;;;;;;;22.00;28.50;;;;;;464584;257;2207;-59
2022/04/02 02:44:02;;;;;;;;;;;22.00;28.50;;;;;;464510;256;1099;-60
2022/04/02 02:46:03;;;;;;;;;;;22.00;28.50;;;;;;464435;256;1323;-60
2022/04/02 02:48:05;;;;;;;;;;;22.10;28.50;;;;;;464442;256;1155;-59
2022/04/02 02:50:06;;;;;;;;;;;22.00;28.50;;;;;;464493;256;1009;-59
2022/04/02 02:52:07;;;;;;;;;;;22.00;28.50;;;;;;464426;256;1314;-60
2022/04/02 02:54:08;;;;;;;;;;;22.00;28.40;;;;;;464634;256;1071;-60
2022/04/02 02:56:10;;;;;;;;;;;22.10;28.40;;;;;;464423;256;1231;-60
2022/04/02 02:58:11;;;;;;;;;;;22.00;28.50;;;;;;464921;256;1059;-60
2022/04/02 03:00:12;;;;;;;;;;;22.00;28.50;;;;;;464671;256;1226;-60
2022/04/02 03:02:14;;;;;;;;;;;22.00;28.40;;;;;;464533;256;2202;-59
2022/04/02 03:04:18;;;;;;;;;;;22.00;28.50;;;;;;464634;256;1054;-60
2022/04/02 03:06:16;;;;;;;;;;;21.90;28.50;;;;;;464493;257;1437;-60
2022/04/02 03:08:18;;;;;;;;;;;21.90;28.40;;;;;;464606;256;1411;-61
2022/04/02 03:10:19;;;;;;;;;;;21.90;28.50;;;;;;464570;256;1057;-59
2022/04/02 03:12:21;;;;;;;;;;;21.90;28.50;;;;;;464491;256;1142;-59
2022/04/02 03:14:22;;;;;;;;;;;21.90;28.50;;;;;;464493;256;1431;-59
2022/04/02 03:16:23;;;;;;;;;;;21.90;28.40;;;;;;464523;256;1330;-59
2022/04/02 03:18:24;;;;;;;;;;;22.00;28.40;;;;;;464519;256;966;-60
2022/04/02 03:20:26;;;;;;;;;;;21.90;28.40;;;;;;464481;256;972;-59
2022/04/02 03:22:27;;;;;;;;;;;22.00;28.40;;;;;;464399;256;2221;-59
2022/04/02 03:24:29;;;;;;;;;;;22.00;28.40;;;;;;464611;256;1046;-59
2022/04/02 03:26:30;;;;;;;;;;;21.90;28.40;;;;;;464630;256;1261;-60
2022/04/02 03:28:32;;;;;;;;;;;21.90;28.30;;;;;;464682;256;1367;-59
2022/04/02 03:30:33;;;;;;;;;;;22.00;28.30;;;;;;464426;256;1253;-60
2022/04/02 03:32:34;;;;;;;;;;;22.00;28.40;;;;;;464510;256;1147;-60
2022/04/02 03:34:36;;;;;;;;;;;21.90;28.30;;;;;;464513;256;1082;-60
2022/04/02 03:36:37;;;;;;;;;;;22.00;28.30;;;;;;464412;256;1215;-60
2022/04/02 03:38:38;;;;;;;;;;;22.00;28.30;;;;;;464516;256;1370;-60
2022/04/02 03:40:41;;;;;;;;;;;22.00;28.30;;;;;;464703;256;2135;-60
2022/04/02 03:42:41;;;;;;;;;;;22.00;28.30;;;;;;464369;256;1519;-59
2022/04/02 03:44:43;;;;;;;;;;;21.90;28.40;;;;;;464699;256;1263;-60
2022/04/02 03:49:03;;;;;;;;;;;21.70;28.50;;;;;;464690;257;1091;-60
2022/04/02 03:51:04;;;;;;;;;;;21.70;28.50;;;;;;464430;256;1252;-59
2022/04/02 03:53:06;;;;;;;;;;;21.80;28.50;;;;;;464643;256;1166;-60
2022/04/02 03:55:07;;;;;;;;;;;21.70;28.40;;;;;;464478;256;997;-60
2022/04/02 03:57:08;;;;;;;;;;;21.70;28.50;;;;;;464654;256;1346;-59
2022/04/02 03:59:11;;;;;;;;;;;21.70;28.50;;;;;;464694;256;1100;-60
2022/04/02 04:01:12;;;;;;;;;;;21.70;28.50;;;;;;464340;257;2135;-59
2022/04/02 04:03:13;;;;;;;;;;;21.70;28.50;;;;;;464490;256;1206;-60
2022/04/02 04:05:14;;;;;;;;;;;21.70;28.50;;;;;;464476;256;1072;-60
2022/04/02 04:07:15;;;;;;;;;;;21.70;28.40;;;;;;464478;256;960;-59
2022/04/02 04:09:17;;;;;;;;;;;21.80;28.40;;;;;;464487;256;993;-60
2022/04/02 04:11:18;;;;;;;;;;;21.80;28.30;;;;;;464689;256;980;-60
2022/04/02 04:13:20;;;;;;;;;;;21.80;28.30;;;;;;464593;256;1046;-59
2022/04/02 04:15:21;;;;;;;;;;;21.80;28.30;;;;;;464918;256;1079;-60
2022/04/02 04:17:23;;;;;;;;;;;21.90;28.30;;;;;;464629;256;1192;-60
2022/04/02 04:19:23;;;;;;;;;;;21.90;28.20;;;;;;464639;256;1187;-59
2022/04/02 04:21:25;;;;;;;;;;;21.90;28.20;;;;;;464608;256;2107;-60
2022/04/02 04:23:26;;;;;;;;;;;22.00;28.10;;;;;;464438;256;1033;-60
2022/04/02 04:25:28;;;;;;;;;;;22.00;28.10;;;;;;464492;256;1026;-60
2022/04/02 04:27:29;;;;;;;;;;;21.90;28.10;;;;;;464646;256;980;-59
2022/04/02 04:29:30;;;;;;;;;;;22.00;28.10;;;;;;464766;256;1086;-60
2022/04/02 04:31:32;;;;;;;;;;;21.90;28.10;;;;;;464411;256;1351;-60
2022/04/02 04:33:33;;;;;;;;;;;22.00;28.10;;;;;;464520;256;1052;-59
2022/04/02 04:35:34;;;;;;;;;;;21.90;28.00;;;;;;464809;256;1088;-59
2022/04/02 04:37:36;;;;;;;;;;;22.00;28.00;;;;;;464510;256;1163;-60
2022/04/02 04:39:37;;;;;;;;;;;22.00;27.90;;;;;;464548;256;1111;-59
2022/04/02 04:41:41;;;;;;;;;;;22.10;27.90;;;;;;464397;256;2358;-60
2022/04/02 04:43:41;;;;;;;;;;;22.10;27.90;;;;;;464393;257;1602;-60
2022/04/02 04:45:41;;;;;;;;;;;22.10;27.90;;;;;;464786;257;1583;-60
2022/04/02 04:47:43;;;;;;;;;;;22.10;27.90;;;;;;464608;256;1170;-60
2022/04/02 04:49:44;;;;;;;;;;;22.10;27.80;;;;;;464924;256;1025;-60
2022/04/02 04:51:45;;;;;;;;;;;22.00;27.80;;;;;;464631;256;1334;-60
2022/04/02 04:53:47;;;;;;;;;;;22.10;27.90;;;;;;464474;256;967;-60
2022/04/02 04:55:48;;;;;;;;;;;22.10;27.90;;;;;;464615;256;1096;-59
2022/04/02 04:57:49;;;;;;;;;;;22.00;27.90;;;;;;464496;256;1122;-59
2022/04/02 04:59:51;;;;;;;;;;;22.10;27.80;;;;;;464661;256;1088;-60
2022/04/02 05:01:52;;;;;;;;;;;22.00;27.80;;;;;;464361;256;2526;-60
2022/04/02 05:03:53;;;;;;;;;;;22.10;27.80;;;;;;464623;256;1094;-60
2022/04/02 05:05:55;;;;;;;;;;;22.10;27.80;;;;;;464776;256;1256;-59
2022/04/02 05:07:56;;;;;;;;;;;22.10;27.80;;;;;;464838;256;1120;-59
2022/04/02 05:09:57;;;;;;;;;;;22.10;27.80;;;;;;464633;256;976;-59
2022/04/02 05:11:59;;;;;;;;;;;22.10;27.80;;;;;;464427;256;1361;-60
2022/04/02 05:14:00;;;;;;;;;;;22.10;27.80;;;;;;464564;256;1144;-59
2022/04/02 05:16:01;;;;;;;;;;;22.10;27.80;;;;;;464587;256;1216;-59
2022/04/02 05:18:03;;;;;;;;;;;21.90;27.90;;;;;;464501;256;1148;-60
2022/04/02 05:20:04;;;;;;;;;;;22.00;27.90;;;;;;464852;256;1054;-60
2022/04/02 05:22:05;;;;;;;;;;;22.00;27.80;;;;;;464700;256;2135;-60
2022/04/02 05:24:07;;;;;;;;;;;22.00;27.80;;;;;;464606;256;1202;-60
2022/04/02 05:26:08;;;;;;;;;;;22.00;27.80;;;;;;464510;256;1186;-60
2022/04/02 05:28:09;;;;;;;;;;;22.00;27.70;;;;;;464464;256;1062;-59
2022/04/02 05:30:11;;;;;;;;;;;22.00;27.70;;;;;;464652;256;1070;-59
2022/04/02 05:32:12;;;;;;;;;;;22.00;27.70;;;;;;464588;256;1246;-60
2022/04/02 05:34:13;;;;;;;;;;;22.00;27.60;;;;;;464484;256;1112;-60
2022/04/02 05:36:15;;;;;;;;;;;22.00;27.60;;;;;;464499;256;1247;-60
2022/04/02 05:38:16;;;;;;;;;;;22.10;27.60;;;;;;464898;256;977;-60
2022/04/02 05:40:18;;;;;;;;;;;22.10;27.60;;;;;;464694;256;971;-60
2022/04/02 05:42:21;;;;;;;;;;;22.10;27.60;;;;;;464540;256;2187;-60
2022/04/02 05:44:21;;;;;;;;;;;22.10;27.70;;;;;;464599;256;2384;-60
2022/04/02 05:46:22;;;;;;;;;;;22.00;27.60;;;;;;464454;256;1210;-60
2022/04/02 05:48:24;;;;;;;;;;;22.10;27.70;;;;;;464562;256;1126;-60
2022/04/02 05:50:26;;;;;;;;;;;22.00;27.60;;;;;;464706;256;1076;-60
2022/04/02 05:52:26;;;;;;;;;;;22.00;27.60;;;;;;464506;257;1989;-60
2022/04/02 05:54:27;;;;;;;;;;;22.10;27.60;;;;;;464710;256;1101;-60
2022/04/02 05:56:29;;;;;;;;;;;22.10;27.50;;;;;;464555;256;1343;-60
2022/04/02 05:58:30;;;;;;;;;;;22.10;27.60;;;;;;464455;256;1080;-59
2022/04/02 06:00:31;;;;;;;;;;;22.10;27.50;;;;;;464703;256;1168;-60
2022/04/02 06:02:33;;;;;;;;;;;22.10;27.50;;;;;;464457;256;2182;-60
2022/04/02 06:04:34;;;;;;;;;;;22.10;27.60;;;;;;464665;256;1057;-60
2022/04/02 06:06:35;;;;;;;;;;;22.10;27.50;;;;;;464450;256;1343;-60
2022/04/02 06:08:37;;;;;;;;;;;22.10;27.60;;;;;;464468;256;1071;-60
2022/04/02 06:10:38;;;;;;;;;;;22.10;27.60;;;;;;464491;256;1282;-60
2022/04/02 06:12:39;;;;;;;;;;;22.10;27.50;;;;;;464443;256;1231;-60
2022/04/02 06:14:41;;;;;;;;;;;22.10;27.60;;;;;;464495;256;1148;-60
2022/04/02 06:16:43;;;;;;;;;;;22.00;27.60;;;;;;464563;256;1312;-60
2022/04/02 06:18:43;;;;;;;;;;;21.90;27.70;;;;;;464497;256;1441;-60
2022/04/02 06:20:45;;;;;;;;;;;21.90;27.70;;;;;;464815;256;1080;-60
2022/04/02 06:22:46;;;;;;;;;;;22.00;27.60;;;;;;464474;256;2138;-60
2022/04/02 06:24:47;;;;;;;;;;;21.90;27.70;;;;;;464469;256;965;-60
2022/04/02 06:26:48;;;;;;;;;;;22.00;27.60;;;;;;464681;257;1275;-60
2022/04/02 06:28:50;;;;;;;;;;;22.00;27.60;;;;;;464750;256;1147;-60
2022/04/02 06:30:51;;;;;;;;;;;22.00;27.60;;;;;;464607;256;1642;-60
2022/04/02 06:32:52;;;;;;;;;;;22.00;27.60;;;;;;464393;256;1183;-60
2022/04/02 06:34:54;;;;;;;;;;;22.00;27.60;;;;;;464510;256;1986;-60
2022/04/02 06:36:55;;;;;;;;;;;22.10;27.60;;;;;;464461;256;1290;-59
2022/04/02 06:38:57;;;;;;;;;;;22.10;27.60;;;;;;464656;256;980;-60
2022/04/02 06:40:58;;;;;;;;;;;22.10;27.60;;;;;;464845;256;1214;-60
2022/04/02 06:43:00;;;;;;;;;;;22.10;27.60;;;;;;464446;256;2202;-60
2022/04/02 06:45:01;;;;;;;;;;;22.00;27.60;;;;;;464547;256;964;-59
2022/04/02 06:47:02;;;;;;;;;;;22.00;27.60;;;;;;464316;256;1283;-60
2022/04/02 06:49:03;;;;;;;;;;;22.00;27.50;;;;;;464469;256;1245;-60
2022/04/02 06:51:07;;;;;;;;;;;22.00;27.60;;;;;;464477;256;1336;-60
2022/04/02 06:53:06;;;;;;;;;;;22.10;27.50;;;;;;464612;257;1258;-60
2022/04/02 06:55:09;;;;;;;;;;;22.00;27.60;;;;;;464827;256;1008;-60
2022/04/02 06:57:10;;;;;;;;;;;22.00;27.60;;;;;;464435;256;1173;-59
2022/04/02 06:59:11;;;;;;;;;;;22.00;27.60;;;;;;464468;256;963;-59
2022/04/02 07:01:12;;;;;;;;;;;22.00;27.60;;;;;;464336;256;1165;-60
2022/04/02 07:03:14;;;;;;;;;;;21.80;27.70;;;;;;464505;256;2135;-60
2022/04/02 07:05:15;;;;;;;;;;;21.80;27.70;;;;;;464616;256;1085;-59
2022/04/02 07:07:16;;;;;;;;;;;21.70;27.80;;;;;;464384;256;1433;-59
2022/04/02 07:09:18;;;;;;;;;;;21.60;27.90;;;;;;464468;256;1075;-60
2022/04/02 07:11:19;;;;;;;;;;;21.60;27.90;;;;;;464548;256;1154;-60
2022/04/02 07:13:20;;;;;;;;;;;21.50;27.90;;;;;;464474;256;1027;-60
2022/04/02 07:15:22;;;;;;;;;;;21.50;27.90;;;;;;464396;256;1281;-60
2022/04/02 07:17:23;;;;;;;;;;;21.40;28.00;;;;;;464461;256;1312;-60
2022/04/02 07:19:25;;;;;;;;;;;21.40;28.10;;;;;;464469;256;1180;-59
2022/04/02 07:21:26;;;;;;;;;;;21.40;28.10;;;;;;464529;256;1325;-60
2022/04/02 07:23:27;;;;;;;;;;;21.40;28.10;;;;;;464388;256;2142;-59
2022/04/02 07:25:29;;;;;;;;;;;21.40;28.10;;;;;;464455;256;1055;-60
2022/04/02 07:27:31;;;;;;;;;;;21.40;28.00;;;;;;464509;256;1242;-60
2022/04/02 07:29:32;;;;;;;;;;;21.50;28.00;;;;;;464662;256;2218;-60
2022/04/02 07:31:33;;;;;;;;;;;21.50;27.90;;;;;;464629;256;1140;-60
2022/04/02 07:33:34;;;;;;;;;;;21.50;27.90;;;;;;464430;256;1162;-60
2022/04/02 07:35:36;;;;;;;;;;;21.50;27.90;;;;;;464608;256;994;-60
2022/04/02 07:37:37;;;;;;;;;;;21.60;27.90;;;;;;464483;256;1134;-60
2022/04/02 07:39:38;;;;;;;;;;;21.60;27.90;;;;;;464436;256;1043;-60
2022/04/02 07:41:40;;;;;;;;;;;21.60;27.80;;;;;;464393;256;1383;-60
2022/04/02 07:43:41;;;;;;;;;;;21.60;27.90;;;;;;464508;256;2188;-60
2022/04/02 07:45:43;;;;;;;;;;;21.60;27.90;;;;;;464460;256;1175;-60
2022/04/02 07:47:44;;;;;;;;;;;21.60;27.90;;;;;;464520;256;1070;-60
2022/04/02 07:49:45;;;;;;;;;;;21.60;27.90;;;;;;464610;256;1164;-60
2022/04/02 07:51:46;;;;;;;;;;;21.60;27.90;;;;;;464614;256;1338;-59
2022/04/02 07:53:48;;;;;;;;;;;21.60;27.90;;;;;;464521;256;1088;-60
2022/04/02 07:55:49;;;;;;;;;;;21.60;28.00;;;;;;464518;256;1372;-60
2022/04/02 07:57:50;;;;;;;;;;;21.30;28.30;;;;;;464593;256;1185;-59
2022/04/02 07:59:52;;;;;;;;;;;21.00;28.50;;;;;;464874;256;1096;-60
2022/04/02 08:01:53;;;;;;;;;;;20.90;28.60;;;;;;464429;256;1230;-60
2022/04/02 08:03:54;;;;;;;;;;;20.90;28.60;;;;;;464387;256;2128;-60
2022/04/02 08:05:56;;;;;;;;;;;20.90;28.60;;;;;;464425;256;1342;-60
2022/04/02 08:07:57;;;;;;;;;;;20.90;28.70;;;;;;464869;256;1165;-60
2022/04/02 08:09:58;;;;;;;;;;;20.90;28.60;;;;;;464488;256;1096;-60
2022/04/02 08:12:00;;;;;;;;;;;20.90;28.70;;;;;;464431;256;1349;-59
2022/04/02 08:14:01;;;;;;;;;;;20.80;28.70;;;;;;464485;256;1097;-60
2022/04/02 08:16:02;;;;;;;;;;;20.80;28.70;;;;;;464601;256;1340;-60
2022/04/02 08:18:05;;;;;;;;;;;20.80;28.80;;;;;;464656;256;1142;-60
2022/04/02 08:20:05;;;;;;;;;;;20.70;28.80;;;;;;464396;257;2307;-59
2022/04/02 08:22:06;;;;;;;;;;;20.80;28.70;;;;;;464281;256;1221;-60
2022/04/02 08:24:08;;;;;;;;;;;20.80;28.80;;;;;;464433;256;2131;-60
2022/04/02 08:26:11;;;;;;;;;;;20.80;28.70;;;;;;464484;256;1157;-59
2022/04/02 08:28:10;;;;;;;;;;;20.80;28.80;;;;;;464321;257;1450;-60
2022/04/02 08:30:12;;;;;;;;;;;20.70;28.80;;;;;;464663;256;1107;-59
2022/04/02 08:32:13;;;;;;;;;;;20.70;28.80;;;;;;464352;256;1246;-60
2022/04/02 08:34:14;;;;;;;;;;;20.70;28.90;;;;;;464617;256;1159;-60
2022/04/02 08:36:16;;;;;;;;;;;20.70;28.80;;;;;;464497;256;1235;-60
2022/04/02 08:38:17;;;;;;;;;;;20.70;28.90;;;;;;464444;256;1077;-60
2022/04/02 08:40:18;;;;;;;;;;;20.70;28.80;;;;;;464525;256;1054;-60
2022/04/02 08:42:20;;;;;;;;;;;20.70;28.80;;;;;;464586;256;1140;-60
2022/04/02 08:44:21;;;;;;;;;;;20.70;28.90;;;;;;464559;256;1056;-60
2022/04/02 08:46:23;;;;;;;;;;;20.70;28.80;;;;;;464433;256;1277;-59
2022/04/02 08:48:24;;;;;;;;;;;20.70;28.80;;;;;;464897;256;1073;-60
2022/04/02 08:50:25;;;;;;;;;;;20.80;28.80;;;;;;464426;256;1203;-60
2022/04/02 08:52:26;;;;;;;;;;;20.70;28.80;;;;;;464387;256;1173;-60
2022/04/02 08:54:28;;;;;;;;;;;20.70;28.80;;;;;;464538;256;1037;-60
2022/04/02 08:56:29;;;;;;;;;;;20.70;28.80;;;;;;464440;256;1358;-60
2022/04/02 08:58:30;;;;;;;;;;;20.70;28.90;;;;;;464489;256;1101;-59
2022/04/02 09:00:32;;;;;;;;;;;20.70;28.80;;;;;;464594;256;1254;-60
2022/04/02 09:02:34;;;;;;;;;;;20.70;28.80;;;;;;464428;256;2127;-60
2022/04/02 09:04:34;;;;;;;;;;;20.70;28.80;;;;;;464439;256;1415;-60
2022/04/02 09:06:36;;;;;;;;;;;20.70;28.80;;;;;;464386;256;1221;-60
2022/04/02 09:08:38;;;;;;;;;;;20.70;28.80;;;;;;464880;256;1065;-60
2022/04/02 09:10:38;;;;;;;;;;;20.70;28.90;;;;;;464678;256;1070;-60
2022/04/02 09:12:40;;;;;;;;;;;20.60;28.80;;;;;;464463;256;1137;-60
2022/04/02 09:14:41;;;;;;;;;;;20.70;28.90;;;;;;464604;256;1069;-60
2022/04/02 09:16:42;;;;;;;;;;;20.70;28.90;;;;;;464636;256;1368;-60
2022/04/02 09:18:44;;;;;;;;;;;20.70;28.90;;;;;;464492;256;979;-60
2022/04/02 09:20:45;;;;;;;;;;;20.70;28.80;;;;;;464452;256;1221;-60
2022/04/02 09:22:46;;;;;;;;;;;20.70;28.80;;;;;;464512;256;2194;-59
2022/04/02 09:24:48;;;;;;;;;;;20.70;28.80;;;;;;464461;256;1076;-60
2022/04/02 09:26:49;;;;;;;;;;;20.70;28.80;;;;;;464546;256;1495;-60
2022/04/02 09:28:50;;;;;;;;;;;20.70;28.80;;;;;;464706;256;1050;-59
2022/04/02 09:30:52;;;;;;;;;;;20.70;28.80;;;;;;464663;256;1280;-59
2022/04/02 09:32:53;;;;;;;;;;;20.70;28.90;;;;;;464475;256;1057;-59
2022/04/02 09:34:54;;;;;;;;;;;20.70;28.90;;;;;;464511;256;1210;-60
2022/04/02 09:36:59;;;;;;;;;;;20.70;28.90;;;;;;464865;256;1286;-60
2022/04/02 09:38:58;;;;;;;;;;;20.60;28.90;;;;;;464647;257;2109;-60
2022/04/02 09:40:59;;;;;;;;;;;20.70;28.90;;;;;;464528;256;1302;-60
2022/04/02 09:43:00;;;;;;;;;;;20.60;28.90;;;;;;464501;256;2136;-59
2022/04/02 09:45:03;;;;;;;;;;;20.70;28.80;;;;;;464499;256;1059;-60
2022/04/02 09:47:03;;;;;;;;;;;20.70;28.80;;;;;;464303;256;1412;-60
2022/04/02 09:49:04;;;;;;;;;;;20.70;28.80;;;;;;464497;256;1246;-60
2022/04/02 09:51:07;;;;;;;;;;;20.70;28.80;;;;;;464413;256;1280;-60
2022/04/02 09:53:07;;;;;;;;;;;20.60;28.90;;;;;;464372;257;1504;-60
2022/04/02 09:55:08;;;;;;;;;;;20.50;28.90;;;;;;464518;256;987;-60
2022/04/02 09:57:10;;;;;;;;;;;20.60;28.90;;;;;;464402;256;1354;-60
2022/04/02 09:59:11;;;;;;;;;;;20.50;28.90;;;;;;464426;256;1003;-59
2022/04/02 10:01:13;;;;;;;;;;;20.50;28.80;;;;;;464437;256;1329;-60
2022/04/02 10:03:17;;;;;;;;;;;20.60;28.80;;;;;;464452;256;2135;-60
2022/04/02 10:05:16;;;;;;;;;;;20.70;28.70;;;;;;464294;257;1434;-59
2022/04/02 10:07:17;;;;;;;;;;;20.70;28.60;;;;;;464376;256;1386;-60
2022/04/02 10:09:20;;;;;;;;;;;20.70;28.60;;;;;;464609;256;1089;-60
2022/04/02 10:11:21;;;;;;;;;;;20.90;28.50;;;;;;464395;256;1434;-60
2022/04/02 10:13:21;;;;;;;;;;;21.00;28.30;;;;;;464375;256;1421;-60
2022/04/02 10:15:23;;;;;;;;;;;21.00;28.20;;;;;;464470;256;1058;-60
2022/04/02 10:17:25;;;;;;;;;;;21.10;28.10;;;;;;464423;256;1253;-60
2022/04/02 10:19:25;;;;;;;;;;;21.30;28.00;;;;;;464453;256;1311;-60
2022/04/02 10:21:27;;;;;;;;;;;21.30;27.90;;;;;;464450;256;1147;-60
2022/04/02 10:23:28;;;;;;;;;;;21.50;27.90;;;;;;464483;256;2126;-59
2022/04/02 10:25:29;;;;;;;;;;;21.50;27.70;;;;;;464521;256;1259;-60
2022/04/02 10:27:31;;;;;;;;;;;21.60;27.70;;;;;;464489;256;1129;-60
2022/04/02 10:29:32;;;;;;;;;;;21.60;27.60;;;;;;464633;256;969;-59
2022/04/02 10:31:33;;;;;;;;;;;21.70;27.60;;;;;;464301;256;1238;-60
2022/04/02 10:33:35;;;;;;;;;;;21.80;27.60;;;;;;464551;256;1076;-60
2022/04/02 10:35:36;;;;;;;;;;;21.80;27.50;;;;;;464673;256;1230;-60
2022/04/02 10:37:37;;;;;;;;;;;21.80;27.50;;;;;;464683;256;1165;-60
2022/04/02 10:39:39;;;;;;;;;;;21.80;27.50;;;;;;464874;256;1054;-60
2022/04/02 10:41:41;;;;;;;;;;;21.70;27.50;;;;;;464535;256;994;-60
2022/04/02 10:43:42;;;;;;;;;;;21.60;27.60;;;;;;464555;256;2199;-60
2022/04/02 10:45:44;;;;;;;;;;;21.50;27.70;;;;;;464568;256;1190;-60
2022/04/02 10:47:45;;;;;;;;;;;21.40;27.80;;;;;;464728;256;1156;-60
2022/04/02 10:49:46;;;;;;;;;;;21.40;27.90;;;;;;464891;256;1074;-60
2022/04/02 10:51:47;;;;;;;;;;;21.20;27.90;;;;;;464443;256;1231;-60
2022/04/02 10:53:49;;;;;;;;;;;21.10;28.00;;;;;;464459;256;1073;-59
2022/04/02 10:55:50;;;;;;;;;;;21.00;28.10;;;;;;464603;256;1119;-60
2022/04/02 10:57:51;;;;;;;;;;;21.00;28.20;;;;;;464434;256;1381;-60
2022/04/02 10:59:53;;;;;;;;;;;21.00;28.10;;;;;;464666;256;963;-60
2022/04/02 11:01:54;;;;;;;;;;;20.90;28.20;;;;;;464347;256;1090;-60
2022/04/02 11:03:55;;;;;;;;;;;20.90;28.20;;;;;;464494;256;2123;-60
2022/04/02 11:05:58;;;;;;;;;;;20.90;28.30;;;;;;464418;256;1336;-60
2022/04/02 11:07:59;;;;;;;;;;;20.80;28.30;;;;;;464425;256;1441;-60
2022/04/02 11:10:00;;;;;;;;;;;20.80;28.30;;;;;;464685;256;1218;-60
2022/04/02 11:12:02;;;;;;;;;;;20.80;28.30;;;;;;464428;256;1066;-60
2022/04/02 11:14:03;;;;;;;;;;;20.80;28.30;;;;;;464602;256;1084;-60
2022/04/02 11:16:04;;;;;;;;;;;20.80;28.30;;;;;;464444;256;1227;-59
2022/04/02 11:18:06;;;;;;;;;;;20.80;28.30;;;;;;464607;256;1039;-60
2022/04/02 11:20:07;;;;;;;;;;;20.70;28.30;;;;;;464450;256;1077;-60
2022/04/02 11:22:08;;;;;;;;;;;20.80;28.30;;;;;;464378;256;1191;-60
2022/04/02 11:24:09;;;;;;;;;;;20.70;28.30;;;;;;464485;256;2136;-60
2022/04/02 11:26:11;;;;;;;;;;;20.80;28.30;;;;;;464344;256;1275;-59
2022/04/02 11:28:12;;;;;;;;;;;20.80;28.40;;;;;;464428;256;1084;-59
2022/04/02 11:30:13;;;;;;;;;;;20.80;28.30;;;;;;464679;256;995;-60
2022/04/02 11:32:15;;;;;;;;;;;20.70;28.30;;;;;;464661;256;1144;-60
2022/04/02 11:34:17;;;;;;;;;;;20.80;28.30;;;;;;464695;256;1028;-60
2022/04/02 11:36:19;;;;;;;;;;;20.80;28.30;;;;;;464495;256;1325;-59
2022/04/02 11:38:21;;;;;;;;;;;20.70;28.30;;;;;;464458;256;982;-60
2022/04/02 11:40:22;;;;;;;;;;;20.80;28.30;;;;;;464594;257;1631;-59
2022/04/02 11:42:23;;;;;;;;;;;20.80;28.30;;;;;;464503;256;993;-60
2022/04/02 11:44:24;;;;;;;;;;;20.80;28.30;;;;;;464649;256;2206;-60
2022/04/02 11:46:25;;;;;;;;;;;20.80;28.30;;;;;;464506;256;1252;-59
2022/04/02 11:48:27;;;;;;;;;;;20.70;28.30;;;;;;464471;256;1067;-59
2022/04/02 11:50:29;;;;;;;;;;;20.80;28.40;;;;;;464367;256;1068;-59
2022/04/02 11:52:29;;;;;;;;;;;20.80;28.30;;;;;;464363;256;1291;-60
2022/04/02 11:54:31;;;;;;;;;;;20.80;28.30;;;;;;464446;256;1080;-60
2022/04/02 11:56:32;;;;;;;;;;;20.90;28.20;;;;;;464429;256;1123;-59
2022/04/02 11:58:33;;;;;;;;;;;20.90;28.20;;;;;;464457;256;1059;-60
2022/04/02 12:00:35;;;;;;;;;;;21.00;28.10;;;;;;464566;256;1077;-60
2022/04/02 12:02:36;;;;;;;;;;;21.10;28.00;;;;;;464463;256;1132;-59